sensor_id;sensor_type;location;lat;lon;timestamp;temperature;humidity
23813;DHT22;12087;45.190;5.688;2024-01-10T00:05:15;3.00;99.90
23813;DHT22;12087;45.190;5.688;2024-01-10T00:10:38;3.00;99.90
23813;DHT22;12087;45.190;5.688;2024-01-10T00:16:01;2.90;99.90
23813;DHT22;12087;45.190;5.688;2024-01-10T00:21:25;2.90;99.90
23813;DHT22;12087;45.190;5.688;2024-01-10T00:26:49;2.90;99.90
23813;DHT22;12087;45.190;5.688;2024-01-10T00:32:11;2.90;99.90
23813;DHT22;12087;45.190;5.688;2024-01-10T00:37:33;2.90;99.90
23813;DHT22;12087;45.190;5.688;2024-01-10T00:42:57;2.90;99.90
23813;DHT22;12087;45.190;5.688;2024-01-10T00:48:19;2.90;99.90
23813;DHT22;12087;45.190;5.688;2024-01-10T00:53:41;2.90;99.90
23813;DHT22;12087;45.190;5.688;2024-01-10T00:59:05;2.90;99.90
23813;DHT22;12087;45.190;5.688;2024-01-10T01:04:27;2.90;99.90
23813;DHT22;12087;45.190;5.688;2024-01-10T01:09:50;2.90;99.90
23813;DHT22;12087;45.190;5.688;2024-01-10T01:15:13;3.00;99.90
23813;DHT22;12087;45.190;5.688;2024-01-10T01:20:35;2.90;99.90
23813;DHT22;12087;45.190;5.688;2024-01-10T01:25:58;2.90;99.90
23813;DHT22;12087;45.190;5.688;2024-01-10T01:31:22;3.00;99.90
23813;DHT22;12087;45.190;5.688;2024-01-10T01:36:44;3.00;99.90
23813;DHT22;12087;45.190;5.688;2024-01-10T01:42:06;3.00;99.90
23813;DHT22;12087;45.190;5.688;2024-01-10T01:47:31;3.00;99.90
23813;DHT22;12087;45.190;5.688;2024-01-10T01:52:53;3.00;99.90
23813;DHT22;12087;45.190;5.688;2024-01-10T01:58:15;3.00;99.90
23813;DHT22;12087;45.190;5.688;2024-01-10T02:03:40;3.00;99.90
23813;DHT22;12087;45.190;5.688;2024-01-10T02:09:02;3.00;99.90
23813;DHT22;12087;45.190;5.688;2024-01-10T02:14:25;2.90;99.90
23813;DHT22;12087;45.190;5.688;2024-01-10T02:19:48;2.90;99.90
23813;DHT22;12087;45.190;5.688;2024-01-10T02:25:13;2.90;99.90
23813;DHT22;12087;45.190;5.688;2024-01-10T02:30:35;2.90;99.90
23813;DHT22;12087;45.190;5.688;2024-01-10T02:35:57;2.90;99.90
23813;DHT22;12087;45.190;5.688;2024-01-10T02:41:21;2.90;99.90
23813;DHT22;12087;45.190;5.688;2024-01-10T02:46:43;2.90;99.90
23813;DHT22;12087;45.190;5.688;2024-01-10T02:52:06;2.90;99.90
23813;DHT22;12087;45.190;5.688;2024-01-10T02:57:29;2.90;99.90
23813;DHT22;12087;45.190;5.688;2024-01-10T03:02:52;3.00;99.90
23813;DHT22;12087;45.190;5.688;2024-01-10T03:08:14;2.90;99.90
23813;DHT22;12087;45.190;5.688;2024-01-10T03:13:37;2.90;99.90
23813;DHT22;12087;45.190;5.688;2024-01-10T03:19:00;2.90;99.90
23813;DHT22;12087;45.190;5.688;2024-01-10T03:24:22;3.00;99.90
23813;DHT22;12087;45.190;5.688;2024-01-10T03:29:49;3.00;99.90
23813;DHT22;12087;45.190;5.688;2024-01-10T03:35:11;3.00;99.90
23813;DHT22;12087;45.190;5.688;2024-01-10T03:40:33;3.00;99.90
23813;DHT22;12087;45.190;5.688;2024-01-10T03:45:57;2.90;99.90
23813;DHT22;12087;45.190;5.688;2024-01-10T03:51:19;2.90;99.90
23813;DHT22;12087;45.190;5.688;2024-01-10T03:56:42;2.90;99.90
23813;DHT22;12087;45.190;5.688;2024-01-10T04:02:05;2.90;99.90
23813;DHT22;12087;45.190;5.688;2024-01-10T04:07:27;2.90;99.90
23813;DHT22;12087;45.190;5.688;2024-01-10T04:12:50;2.90;99.90
23813;DHT22;12087;45.190;5.688;2024-01-10T04:18:13;3.00;99.90
23813;DHT22;12087;45.190;5.688;2024-01-10T04:23:35;2.90;99.90
23813;DHT22;12087;45.190;5.688;2024-01-10T04:28:58;2.90;99.90
23813;DHT22;12087;45.190;5.688;2024-01-10T04:34:21;2.90;99.90
23813;DHT22;12087;45.190;5.688;2024-01-10T04:39:45;2.90;99.90
23813;DHT22;12087;45.190;5.688;2024-01-10T04:45:08;2.90;99.90
23813;DHT22;12087;45.190;5.688;2024-01-10T04:50:31;2.90;99.90
23813;DHT22;12087;45.190;5.688;2024-01-10T04:55:54;2.90;99.90
23813;DHT22;12087;45.190;5.688;2024-01-10T05:01:16;2.90;99.90
23813;DHT22;12087;45.190;5.688;2024-01-10T05:06:39;2.90;99.90
23813;DHT22;12087;45.190;5.688;2024-01-10T05:12:02;2.90;99.90
23813;DHT22;12087;45.190;5.688;2024-01-10T05:17:24;3.00;99.90
23813;DHT22;12087;45.190;5.688;2024-01-10T05:22:48;3.00;99.90
23813;DHT22;12087;45.190;5.688;2024-01-10T05:28:10;3.00;99.90
23813;DHT22;12087;45.190;5.688;2024-01-10T05:33:32;2.90;99.90
23813;DHT22;12087;45.190;5.688;2024-01-10T05:38:56;2.90;99.90
23813;DHT22;12087;45.190;5.688;2024-01-10T05:44:18;2.90;99.90
23813;DHT22;12087;45.190;5.688;2024-01-10T05:49:40;2.90;99.90
23813;DHT22;12087;45.190;5.688;2024-01-10T05:55:05;2.90;99.90
23813;DHT22;12087;45.190;5.688;2024-01-10T06:00:29;3.00;99.90
23813;DHT22;12087;45.190;5.688;2024-01-10T06:05:51;3.00;99.90
23813;DHT22;12087;45.190;5.688;2024-01-10T06:11:15;2.90;99.90
23813;DHT22;12087;45.190;5.688;2024-01-10T06:16:37;3.00;99.90
23813;DHT22;12087;45.190;5.688;2024-01-10T06:22:00;3.00;99.90
23813;DHT22;12087;45.190;5.688;2024-01-10T06:27:24;3.00;99.90
23813;DHT22;12087;45.190;5.688;2024-01-10T06:32:46;3.00;99.90
23813;DHT22;12087;45.190;5.688;2024-01-10T06:38:08;3.00;99.90
23813;DHT22;12087;45.190;5.688;2024-01-10T06:43:32;3.00;99.90
23813;DHT22;12087;45.190;5.688;2024-01-10T06:48:55;3.00;99.90
23813;DHT22;12087;45.190;5.688;2024-01-10T06:54:17;3.00;99.90
23813;DHT22;12087;45.190;5.688;2024-01-10T06:59:41;3.00;99.90
23813;DHT22;12087;45.190;5.688;2024-01-10T07:05:06;3.00;99.90
23813;DHT22;12087;45.190;5.688;2024-01-10T07:10:29;3.00;99.90
23813;DHT22;12087;45.190;5.688;2024-01-10T07:15:52;3.00;99.90
23813;DHT22;12087;45.190;5.688;2024-01-10T07:21:15;3.10;99.90
23813;DHT22;12087;45.190;5.688;2024-01-10T07:26:37;3.10;99.90
23813;DHT22;12087;45.190;5.688;2024-01-10T07:32:01;3.10;99.90
23813;DHT22;12087;45.190;5.688;2024-01-10T07:37:24;3.10;99.90
23813;DHT22;12087;45.190;5.688;2024-01-10T07:42:46;3.10;99.90
23813;DHT22;12087;45.190;5.688;2024-01-10T07:48:10;3.10;99.90
23813;DHT22;12087;45.190;5.688;2024-01-10T07:53:33;3.10;99.90
23813;DHT22;12087;45.190;5.688;2024-01-10T07:58:55;3.20;99.90
23813;DHT22;12087;45.190;5.688;2024-01-10T08:04:19;3.20;99.90
23813;DHT22;12087;45.190;5.688;2024-01-10T08:09:41;3.20;99.90
23813;DHT22;12087;45.190;5.688;2024-01-10T08:15:04;3.30;99.90
23813;DHT22;12087;45.190;5.688;2024-01-10T08:20:28;3.30;99.90
23813;DHT22;12087;45.190;5.688;2024-01-10T08:25:50;3.20;99.90
23813;DHT22;12087;45.190;5.688;2024-01-10T08:31:16;3.30;99.90
23813;DHT22;12087;45.190;5.688;2024-01-10T08:36:40;3.20;99.90
23813;DHT22;12087;45.190;5.688;2024-01-10T08:42:02;3.30;99.90
23813;DHT22;12087;45.190;5.688;2024-01-10T08:47:24;3.30;99.90
23813;DHT22;12087;45.190;5.688;2024-01-10T08:52:48;3.30;99.90
23813;DHT22;12087;45.190;5.688;2024-01-10T08:58:10;3.40;99.90
23813;DHT22;12087;45.190;5.688;2024-01-10T09:03:33;3.50;99.90
23813;DHT22;12087;45.190;5.688;2024-01-10T09:08:56;3.50;99.90
23813;DHT22;12087;45.190;5.688;2024-01-10T09:14:19;3.50;99.90
23813;DHT22;12087;45.190;5.688;2024-01-10T09:19:41;3.50;99.90
23813;DHT22;12087;45.190;5.688;2024-01-10T09:25:05;3.60;99.90
23813;DHT22;12087;45.190;5.688;2024-01-10T09:30:29;3.60;99.90
23813;DHT22;12087;45.190;5.688;2024-01-10T09:35:51;3.70;99.90
23813;DHT22;12087;45.190;5.688;2024-01-10T09:41:15;3.80;99.90
23813;DHT22;12087;45.190;5.688;2024-01-10T09:46:39;3.80;99.90
23813;DHT22;12087;45.190;5.688;2024-01-10T09:52:04;3.80;99.90
23813;DHT22;12087;45.190;5.688;2024-01-10T09:57:31;3.80;99.90
23813;DHT22;12087;45.190;5.688;2024-01-10T10:02:56;3.90;99.90
23813;DHT22;12087;45.190;5.688;2024-01-10T10:08:19;4.00;99.90
23813;DHT22;12087;45.190;5.688;2024-01-10T10:13:44;4.00;99.90
23813;DHT22;12087;45.190;5.688;2024-01-10T10:19:06;4.00;99.90
23813;DHT22;12087;45.190;5.688;2024-01-10T10:24:30;4.00;99.90
23813;DHT22;12087;45.190;5.688;2024-01-10T10:29:54;4.00;99.90
23813;DHT22;12087;45.190;5.688;2024-01-10T10:35:17;4.10;99.90
23813;DHT22;12087;45.190;5.688;2024-01-10T10:40:40;4.00;99.90
23813;DHT22;12087;45.190;5.688;2024-01-10T10:46:04;4.10;99.90
23813;DHT22;12087;45.190;5.688;2024-01-10T10:51:30;4.10;99.90
23813;DHT22;12087;45.190;5.688;2024-01-10T10:56:55;4.20;99.90
23813;DHT22;12087;45.190;5.688;2024-01-10T11:02:22;4.20;99.90
23813;DHT22;12087;45.190;5.688;2024-01-10T11:07:45;4.20;99.90
23813;DHT22;12087;45.190;5.688;2024-01-10T11:13:22;4.30;99.90
23813;DHT22;12087;45.190;5.688;2024-01-10T11:19:02;4.30;99.90
23813;DHT22;12087;45.190;5.688;2024-01-10T11:24:29;4.30;99.90
23813;DHT22;12087;45.190;5.688;2024-01-10T11:29:51;4.40;99.90
23813;DHT22;12087;45.190;5.688;2024-01-10T11:35:19;4.40;99.90
23813;DHT22;12087;45.190;5.688;2024-01-10T11:40:48;4.40;99.90
23813;DHT22;12087;45.190;5.688;2024-01-10T11:46:10;4.50;99.90
23813;DHT22;12087;45.190;5.688;2024-01-10T11:51:35;4.50;99.90
23813;DHT22;12087;45.190;5.688;2024-01-10T11:57:00;4.50;99.90
23813;DHT22;12087;45.190;5.688;2024-01-10T12:02:23;4.50;99.90
23813;DHT22;12087;45.190;5.688;2024-01-10T12:07:52;4.50;99.90
23813;DHT22;12087;45.190;5.688;2024-01-10T12:13:14;4.50;99.90
23813;DHT22;12087;45.190;5.688;2024-01-10T12:18:37;4.50;99.90
23813;DHT22;12087;45.190;5.688;2024-01-10T12:24:03;4.60;99.90
23813;DHT22;12087;45.190;5.688;2024-01-10T12:29:26;4.60;99.90
23813;DHT22;12087;45.190;5.688;2024-01-10T12:34:49;4.60;99.90
23813;DHT22;12087;45.190;5.688;2024-01-10T12:40:17;4.60;99.90
23813;DHT22;12087;45.190;5.688;2024-01-10T12:45:39;4.70;99.90
23813;DHT22;12087;45.190;5.688;2024-01-10T12:51:04;4.70;99.90
23813;DHT22;12087;45.190;5.688;2024-01-10T12:56:30;4.70;99.90
23813;DHT22;12087;45.190;5.688;2024-01-10T13:01:53;4.80;99.90
23813;DHT22;12087;45.190;5.688;2024-01-10T13:07:15;4.80;99.90
23813;DHT22;12087;45.190;5.688;2024-01-10T13:12:39;4.90;99.90
23813;DHT22;12087;45.190;5.688;2024-01-10T13:18:01;4.90;99.90
23813;DHT22;12087;45.190;5.688;2024-01-10T13:23:24;4.90;99.90
23813;DHT22;12087;45.190;5.688;2024-01-10T13:28:47;4.90;99.90
23813;DHT22;12087;45.190;5.688;2024-01-10T13:34:10;4.90;99.90
23813;DHT22;12087;45.190;5.688;2024-01-10T13:39:32;4.90;99.90
23813;DHT22;12087;45.190;5.688;2024-01-10T13:44:57;4.80;99.90
23813;DHT22;12087;45.190;5.688;2024-01-10T13:50:19;4.90;99.90
23813;DHT22;12087;45.190;5.688;2024-01-10T13:55:42;4.80;99.90
23813;DHT22;12087;45.190;5.688;2024-01-10T14:01:06;4.90;99.90
23813;DHT22;12087;45.190;5.688;2024-01-10T14:06:28;4.90;99.90
23813;DHT22;12087;45.190;5.688;2024-01-10T14:11:50;4.90;99.90
23813;DHT22;12087;45.190;5.688;2024-01-10T14:17:14;5.00;99.90
23813;DHT22;12087;45.190;5.688;2024-01-10T14:22:36;4.90;99.90
23813;DHT22;12087;45.190;5.688;2024-01-10T14:28:11;4.90;99.90
23813;DHT22;12087;45.190;5.688;2024-01-10T14:33:35;4.80;99.90
23813;DHT22;12087;45.190;5.688;2024-01-10T14:39:12;4.80;99.90
23813;DHT22;12087;45.190;5.688;2024-01-10T14:44:35;4.80;99.90
23813;DHT22;12087;45.190;5.688;2024-01-10T14:49:59;4.80;99.90
23813;DHT22;12087;45.190;5.688;2024-01-10T14:55:21;4.90;99.90
23813;DHT22;12087;45.190;5.688;2024-01-10T15:00:44;4.80;99.90
23813;DHT22;12087;45.190;5.688;2024-01-10T15:06:08;4.90;99.90
23813;DHT22;12087;45.190;5.688;2024-01-10T15:11:30;4.90;99.90
23813;DHT22;12087;45.190;5.688;2024-01-10T15:16:52;4.90;99.90
23813;DHT22;12087;45.190;5.688;2024-01-10T15:22:16;4.80;99.90
23813;DHT22;12087;45.190;5.688;2024-01-10T15:27:38;4.90;99.90
23813;DHT22;12087;45.190;5.688;2024-01-10T15:33:01;4.90;99.90
23813;DHT22;12087;45.190;5.688;2024-01-10T15:38:26;4.90;99.90
23813;DHT22;12087;45.190;5.688;2024-01-10T15:43:48;4.90;99.90
23813;DHT22;12087;45.190;5.688;2024-01-10T15:49:12;4.90;99.90
23813;DHT22;12087;45.190;5.688;2024-01-10T15:54:35;4.90;99.90
23813;DHT22;12087;45.190;5.688;2024-01-10T15:59:59;4.80;99.90
23813;DHT22;12087;45.190;5.688;2024-01-10T16:05:21;4.80;99.90
23813;DHT22;12087;45.190;5.688;2024-01-10T16:10:46;4.80;99.90
23813;DHT22;12087;45.190;5.688;2024-01-10T16:16:08;4.80;99.90
23813;DHT22;12087;45.190;5.688;2024-01-10T16:21:31;4.80;99.90
23813;DHT22;12087;45.190;5.688;2024-01-10T16:26:55;4.80;99.90
23813;DHT22;12087;45.190;5.688;2024-01-10T16:32:17;4.70;99.90
23813;DHT22;12087;45.190;5.688;2024-01-10T16:37:39;4.70;99.90
23813;DHT22;12087;45.190;5.688;2024-01-10T16:43:03;4.70;99.90
23813;DHT22;12087;45.190;5.688;2024-01-10T16:48:25;4.70;99.90
23813;DHT22;12087;45.190;5.688;2024-01-10T16:53:48;4.70;99.90
23813;DHT22;12087;45.190;5.688;2024-01-10T16:59:12;4.70;99.90
23813;DHT22;12087;45.190;5.688;2024-01-10T17:04:34;4.60;99.90
23813;DHT22;12087;45.190;5.688;2024-01-10T17:09:57;4.70;99.90
23813;DHT22;12087;45.190;5.688;2024-01-10T17:15:23;4.60;99.90
23813;DHT22;12087;45.190;5.688;2024-01-10T17:20:46;4.60;99.90
23813;DHT22;12087;45.190;5.688;2024-01-10T17:26:09;4.60;99.90
23813;DHT22;12087;45.190;5.688;2024-01-10T17:31:33;4.60;99.90
23813;DHT22;12087;45.190;5.688;2024-01-10T17:36:55;4.60;99.90
23813;DHT22;12087;45.190;5.688;2024-01-10T17:42:17;4.60;99.90
23813;DHT22;12087;45.190;5.688;2024-01-10T17:47:41;4.50;99.90
23813;DHT22;12087;45.190;5.688;2024-01-10T17:53:04;4.50;99.90
23813;DHT22;12087;45.190;5.688;2024-01-10T17:58:27;4.50;99.90
23813;DHT22;12087;45.190;5.688;2024-01-10T18:04:07;4.50;99.90
23813;DHT22;12087;45.190;5.688;2024-01-10T18:09:33;4.50;99.90
23813;DHT22;12087;45.190;5.688;2024-01-10T19:00:57;4.50;99.90
23813;DHT22;12087;45.190;5.688;2024-01-10T19:07:26;4.50;99.90
23813;DHT22;12087;45.190;5.688;2024-01-10T19:19:48;4.50;99.90
23813;DHT22;12087;45.190;5.688;2024-01-10T19:25:11;4.40;99.90
23813;DHT22;12087;45.190;5.688;2024-01-10T19:37:22;4.30;99.90
23813;DHT22;12087;45.190;5.688;2024-01-10T19:43:01;4.40;99.90
23813;DHT22;12087;45.190;5.688;2024-01-10T19:54:38;4.30;99.90
23813;DHT22;12087;45.190;5.688;2024-01-10T20:00:02;4.30;99.90
23813;DHT22;12087;45.190;5.688;2024-01-10T20:05:25;4.30;99.90
23813;DHT22;12087;45.190;5.688;2024-01-10T20:10:47;4.30;99.90
23813;DHT22;12087;45.190;5.688;2024-01-10T20:16:11;4.30;99.90
23813;DHT22;12087;45.190;5.688;2024-01-10T20:21:33;4.30;99.90
23813;DHT22;12087;45.190;5.688;2024-01-10T20:26:56;4.20;99.90
23813;DHT22;12087;45.190;5.688;2024-01-10T20:32:19;4.20;99.90
23813;DHT22;12087;45.190;5.688;2024-01-10T20:37:44;4.30;99.90
23813;DHT22;12087;45.190;5.688;2024-01-10T20:43:31;4.20;99.90
23813;DHT22;12087;45.190;5.688;2024-01-10T21:14:41;4.30;99.90
23813;DHT22;12087;45.190;5.688;2024-01-10T21:26:22;4.30;99.90
23813;DHT22;12087;45.190;5.688;2024-01-10T21:31:46;4.40;99.90
23813;DHT22;12087;45.190;5.688;2024-01-10T21:37:08;4.40;99.90
23813;DHT22;12087;45.190;5.688;2024-01-10T21:42:30;4.40;99.90
23813;DHT22;12087;45.190;5.688;2024-01-10T21:47:55;4.40;99.90
23813;DHT22;12087;45.190;5.688;2024-01-10T21:53:17;4.40;99.90
23813;DHT22;12087;45.190;5.688;2024-01-10T21:58:40;4.40;99.90
23813;DHT22;12087;45.190;5.688;2024-01-10T22:04:03;4.50;99.90
23813;DHT22;12087;45.190;5.688;2024-01-10T22:09:26;4.50;99.90
23813;DHT22;12087;45.190;5.688;2024-01-10T22:14:48;4.50;99.90
23813;DHT22;12087;45.190;5.688;2024-01-10T22:20:12;4.50;99.90
23813;DHT22;12087;45.190;5.688;2024-01-10T22:25:34;4.50;99.90
23813;DHT22;12087;45.190;5.688;2024-01-10T22:30:56;4.50;99.90
23813;DHT22;12087;45.190;5.688;2024-01-10T22:36:20;4.50;99.90
23813;DHT22;12087;45.190;5.688;2024-01-10T22:41:42;4.50;99.90
23813;DHT22;12087;45.190;5.688;2024-01-10T22:47:04;4.50;99.90
23813;DHT22;12087;45.190;5.688;2024-01-10T22:52:28;4.50;99.90
23813;DHT22;12087;45.190;5.688;2024-01-10T22:57:51;4.40;99.90
23813;DHT22;12087;45.190;5.688;2024-01-10T23:03:16;4.40;99.90
23813;DHT22;12087;45.190;5.688;2024-01-10T23:08:39;4.40;99.90
23813;DHT22;12087;45.190;5.688;2024-01-10T23:14:02;4.40;99.90
23813;DHT22;12087;45.190;5.688;2024-01-10T23:19:24;4.40;99.90
23813;DHT22;12087;45.190;5.688;2024-01-10T23:24:49;4.30;99.90
23813;DHT22;12087;45.190;5.688;2024-01-10T23:30:12;4.30;99.90
23813;DHT22;12087;45.190;5.688;2024-01-10T23:35:35;4.30;99.90
23813;DHT22;12087;45.190;5.688;2024-01-10T23:40:59;4.20;99.90
23813;DHT22;12087;45.190;5.688;2024-01-10T23:46:21;4.20;99.90
23813;DHT22;12087;45.190;5.688;2024-01-10T23:51:44;4.20;99.90
23813;DHT22;12087;45.190;5.688;2024-01-10T23:57:09;4.20;99.90
